sensor_id;sensor_type;location;lat;lon;timestamp;P1;durP1;ratioP1;P2;durP2;ratioP2
23099;SDS011;53791;50.696;4.396;2023-05-13T00:01:31;3.85;;;2.42;;
23099;SDS011;53791;50.696;4.396;2023-05-13T00:04:19;3.00;;;2.60;;
23099;SDS011;53791;50.696;4.396;2023-05-13T00:06:39;2.60;;;2.40;;
23099;SDS011;53791;50.696;4.396;2023-05-13T00:09:08;3.02;;;2.72;;
23099;SDS011;53791;50.696;4.396;2023-05-13T00:11:56;3.00;;;2.70;;
23099;SDS011;53791;50.696;4.396;2023-05-13T00:14:21;5.30;;;3.40;;
23099;SDS011;53791;50.696;4.396;2023-05-13T00:16:48;3.30;;;2.87;;
23099;SDS011;53791;50.696;4.396;2023-05-13T00:19:16;5.03;;;2.90;;
23099;SDS011;53791;50.696;4.396;2023-05-13T00:21:43;3.95;;;3.12;;
23099;SDS011;53791;50.696;4.396;2023-05-13T00:24:14;3.05;;;2.67;;
23099;SDS011;53791;50.696;4.396;2023-05-13T00:26:44;4.80;;;3.00;;
23099;SDS011;53791;50.696;4.396;2023-05-13T00:29:13;2.65;;;2.42;;
23099;SDS011;53791;50.696;4.396;2023-05-13T00:31:47;3.62;;;3.30;;
23099;SDS011;53791;50.696;4.396;2023-05-13T00:34:17;3.10;;;2.80;;
23099;SDS011;53791;50.696;4.396;2023-05-13T00:36:47;3.22;;;2.80;;
23099;SDS011;53791;50.696;4.396;2023-05-13T00:39:20;3.75;;;3.35;;
23099;SDS011;53791;50.696;4.396;2023-05-13T00:41:54;3.40;;;3.00;;
23099;SDS011;53791;50.696;4.396;2023-05-13T00:44:29;3.55;;;2.92;;
23099;SDS011;53791;50.696;4.396;2023-05-13T00:47:03;4.03;;;2.90;;
23099;SDS011;53791;50.696;4.396;2023-05-13T00:49:37;4.17;;;3.33;;
23099;SDS011;53791;50.696;4.396;2023-05-13T00:52:04;5.05;;;3.83;;
23099;SDS011;53791;50.696;4.396;2023-05-13T00:54:38;4.20;;;2.90;;
23099;SDS011;53791;50.696;4.396;2023-05-13T00:57:18;3.72;;;3.25;;
23099;SDS011;53791;50.696;4.396;2023-05-13T00:59:42;3.17;;;2.83;;
23099;SDS011;53791;50.696;4.396;2023-05-13T01:07:51;3.77;;;3.17;;
23099;SDS011;53791;50.696;4.396;2023-05-13T01:13:31;2.80;;;2.58;;
23099;SDS011;53791;50.696;4.396;2023-05-13T01:23:45;4.62;;;3.62;;
23099;SDS011;53791;50.696;4.396;2023-05-13T01:26:16;3.30;;;2.98;;
23099;SDS011;53791;50.696;4.396;2023-05-13T01:29:08;4.12;;;3.55;;
23099;SDS011;53791;50.696;4.396;2023-05-13T01:31:22;3.40;;;3.10;;
23099;SDS011;53791;50.696;4.396;2023-05-13T01:33:54;4.40;;;3.25;;
23099;SDS011;53791;50.696;4.396;2023-05-13T01:36:28;3.37;;;2.67;;
23099;SDS011;53791;50.696;4.396;2023-05-13T01:41:35;4.35;;;3.22;;
23099;SDS011;53791;50.696;4.396;2023-05-13T01:44:09;3.40;;;3.10;;
23099;SDS011;53791;50.696;4.396;2023-05-13T01:46:39;4.25;;;3.70;;
23099;SDS011;53791;50.696;4.396;2023-05-13T01:49:13;2.80;;;2.50;;
23099;SDS011;53791;50.696;4.396;2023-05-13T01:51:40;3.60;;;2.60;;
23099;SDS011;53791;50.696;4.396;2023-05-13T01:56:46;3.80;;;3.40;;
23099;SDS011;53791;50.696;4.396;2023-05-13T01:59:16;8.55;;;4.05;;
23099;SDS011;53791;50.696;4.396;2023-05-13T02:01:45;3.52;;;2.67;;
23099;SDS011;53791;50.696;4.396;2023-05-13T02:04:19;3.37;;;2.75;;
23099;SDS011;53791;50.696;4.396;2023-05-13T02:06:51;3.70;;;3.35;;
23099;SDS011;53791;50.696;4.396;2023-05-13T02:09:23;4.08;;;3.67;;
23099;SDS011;53791;50.696;4.396;2023-05-13T02:11:57;4.12;;;3.50;;
23099;SDS011;53791;50.696;4.396;2023-05-13T02:14:25;3.30;;;3.00;;
23099;SDS011;53791;50.696;4.396;2023-05-13T02:16:56;3.77;;;3.20;;
23099;SDS011;53791;50.696;4.396;2023-05-13T02:19:30;3.42;;;3.12;;
23099;SDS011;53791;50.696;4.396;2023-05-13T02:21:58;3.80;;;3.22;;
23099;SDS011;53791;50.696;4.396;2023-05-13T02:24:30;4.60;;;2.77;;
23099;SDS011;53791;50.696;4.396;2023-05-13T02:29:37;3.75;;;3.37;;
23099;SDS011;53791;50.696;4.396;2023-05-13T02:32:08;2.90;;;2.60;;
23099;SDS011;53791;50.696;4.396;2023-05-13T02:34:40;4.58;;;3.50;;
23099;SDS011;53791;50.696;4.396;2023-05-13T02:37:14;3.95;;;3.55;;
23099;SDS011;53791;50.696;4.396;2023-05-13T02:39:54;4.65;;;3.47;;
23099;SDS011;53791;50.696;4.396;2023-05-13T02:42:28;5.53;;;4.30;;
23099;SDS011;53791;50.696;4.396;2023-05-13T02:44:56;3.60;;;2.92;;
23099;SDS011;53791;50.696;4.396;2023-05-13T02:47:23;4.28;;;3.52;;
23099;SDS011;53791;50.696;4.396;2023-05-13T02:49:58;3.60;;;3.05;;
23099;SDS011;53791;50.696;4.396;2023-05-13T02:52:49;5.30;;;3.05;;
23099;SDS011;53791;50.696;4.396;2023-05-13T02:55:02;3.40;;;2.70;;
23099;SDS011;53791;50.696;4.396;2023-05-13T03:00:10;4.30;;;3.90;;
23099;SDS011;53791;50.696;4.396;2023-05-13T03:02:45;5.65;;;4.25;;
23099;SDS011;53791;50.696;4.396;2023-05-13T03:05:13;3.83;;;3.42;;
23099;SDS011;53791;50.696;4.396;2023-05-13T03:07:47;3.80;;;3.40;;
23099;SDS011;53791;50.696;4.396;2023-05-13T03:10:19;3.85;;;3.45;;
23099;SDS011;53791;50.696;4.396;2023-05-13T03:12:47;3.67;;;3.37;;
23099;SDS011;53791;50.696;4.396;2023-05-13T03:15:22;4.53;;;3.75;;
23099;SDS011;53791;50.696;4.396;2023-05-13T03:17:48;3.67;;;3.27;;
23099;SDS011;53791;50.696;4.396;2023-05-13T03:20:18;3.80;;;3.17;;
23099;SDS011;53791;50.696;4.396;2023-05-13T03:22:51;5.15;;;3.75;;
23099;SDS011;53791;50.696;4.396;2023-05-13T03:25:24;4.00;;;3.60;;
23099;SDS011;53791;50.696;4.396;2023-05-13T03:27:55;3.95;;;3.60;;
23099;SDS011;53791;50.696;4.396;2023-05-13T03:30:25;4.75;;;4.15;;
23099;SDS011;53791;50.696;4.396;2023-05-13T03:32:57;4.28;;;3.87;;
23099;SDS011;53791;50.696;4.396;2023-05-13T03:35:25;5.33;;;4.25;;
23099;SDS011;53791;50.696;4.396;2023-05-13T03:37:55;13.93;;;4.10;;
23099;SDS011;53791;50.696;4.396;2023-05-13T03:40:29;5.40;;;4.22;;
23099;SDS011;53791;50.696;4.396;2023-05-13T03:42:56;5.40;;;4.00;;
23099;SDS011;53791;50.696;4.396;2023-05-13T03:45:28;4.65;;;3.95;;
23099;SDS011;53791;50.696;4.396;2023-05-13T03:48:04;4.15;;;3.62;;
23099;SDS011;53791;50.696;4.396;2023-05-13T03:50:31;4.75;;;4.08;;
23099;SDS011;53791;50.696;4.396;2023-05-13T03:53:11;7.95;;;4.00;;
23099;SDS011;53791;50.696;4.396;2023-05-13T03:55:41;3.75;;;3.45;;
23099;SDS011;53791;50.696;4.396;2023-05-13T03:58:32;4.85;;;3.80;;
23099;SDS011;53791;50.696;4.396;2023-05-13T04:00:53;5.97;;;4.67;;
23099;SDS011;53791;50.696;4.396;2023-05-13T04:03:18;4.90;;;4.40;;
23099;SDS011;53791;50.696;4.396;2023-05-13T04:05:50;3.62;;;3.33;;
23099;SDS011;53791;50.696;4.396;2023-05-13T04:13:23;11.22;;;4.62;;
23099;SDS011;53791;50.696;4.396;2023-05-13T04:15:55;6.15;;;4.35;;
23099;SDS011;53791;50.696;4.396;2023-05-13T04:20:59;4.10;;;3.70;;
23099;SDS011;53791;50.696;4.396;2023-05-13T04:23:33;3.90;;;3.50;;
23099;SDS011;53791;50.696;4.396;2023-05-13T04:28:50;4.42;;;3.98;;
23099;SDS011;53791;50.696;4.396;2023-05-13T04:31:17;5.62;;;3.67;;
23099;SDS011;53791;50.696;4.396;2023-05-13T04:33:49;3.85;;;3.55;;
23099;SDS011;53791;50.696;4.396;2023-05-13T04:36:17;4.62;;;3.45;;
23099;SDS011;53791;50.696;4.396;2023-05-13T04:38:51;4.42;;;3.72;;
23099;SDS011;53791;50.696;4.396;2023-05-13T04:44:00;4.20;;;3.40;;
23099;SDS011;53791;50.696;4.396;2023-05-13T04:46:32;3.83;;;3.47;;
23099;SDS011;53791;50.696;4.396;2023-05-13T04:49:04;4.25;;;3.55;;
23099;SDS011;53791;50.696;4.396;2023-05-13T04:51:39;4.53;;;3.47;;
23099;SDS011;53791;50.696;4.396;2023-05-13T04:54:16;4.95;;;4.35;;
23099;SDS011;53791;50.696;4.396;2023-05-13T04:56:49;4.75;;;3.95;;
23099;SDS011;53791;50.696;4.396;2023-05-13T04:59:21;4.87;;;3.92;;
23099;SDS011;53791;50.696;4.396;2023-05-13T05:01:57;6.05;;;4.03;;
23099;SDS011;53791;50.696;4.396;2023-05-13T05:04:28;5.37;;;4.08;;
23099;SDS011;53791;50.696;4.396;2023-05-13T05:09:32;3.65;;;3.35;;
23099;SDS011;53791;50.696;4.396;2023-05-13T05:12:05;5.15;;;4.10;;
23099;SDS011;53791;50.696;4.396;2023-05-13T05:14:37;4.85;;;4.05;;
23099;SDS011;53791;50.696;4.396;2023-05-13T05:17:17;4.53;;;3.72;;
23099;SDS011;53791;50.696;4.396;2023-05-13T05:19:43;4.65;;;4.12;;
23099;SDS011;53791;50.696;4.396;2023-05-13T05:22:11;5.03;;;4.20;;
23099;SDS011;53791;50.696;4.396;2023-05-13T05:24:46;3.77;;;3.45;;
23099;SDS011;53791;50.696;4.396;2023-05-13T05:28:04;4.78;;;4.03;;
23099;SDS011;53791;50.696;4.396;2023-05-13T05:29:49;4.47;;;4.05;;
23099;SDS011;53791;50.696;4.396;2023-05-13T05:32:18;5.72;;;4.78;;
23099;SDS011;53791;50.696;4.396;2023-05-13T05:34:48;4.70;;;4.20;;
23099;SDS011;53791;50.696;4.396;2023-05-13T05:37:22;4.45;;;4.05;;
23099;SDS011;53791;50.696;4.396;2023-05-13T05:39:55;4.28;;;3.77;;
23099;SDS011;53791;50.696;4.396;2023-05-13T05:42:31;6.87;;;5.42;;
23099;SDS011;53791;50.696;4.396;2023-05-13T05:45:04;5.03;;;4.50;;
23099;SDS011;53791;50.696;4.396;2023-05-13T05:47:33;9.13;;;4.72;;
23099;SDS011;53791;50.696;4.396;2023-05-13T05:50:08;4.83;;;3.83;;
23099;SDS011;53791;50.696;4.396;2023-05-13T05:52:42;4.20;;;3.87;;
23099;SDS011;53791;50.696;4.396;2023-05-13T05:55:14;10.45;;;4.25;;
23099;SDS011;53791;50.696;4.396;2023-05-13T05:57:43;5.47;;;4.87;;
23099;SDS011;53791;50.696;4.396;2023-05-13T06:00:16;5.35;;;4.80;;
23099;SDS011;53791;50.696;4.396;2023-05-13T06:02:49;6.55;;;4.83;;
23099;SDS011;53791;50.696;4.396;2023-05-13T06:05:20;5.15;;;4.65;;
23099;SDS011;53791;50.696;4.396;2023-05-13T06:07:49;4.95;;;3.90;;
23099;SDS011;53791;50.696;4.396;2023-05-13T06:10:27;4.40;;;4.00;;
23099;SDS011;53791;50.696;4.396;2023-05-13T06:12:55;4.58;;;4.17;;
23099;SDS011;53791;50.696;4.396;2023-05-13T06:15:26;5.15;;;4.65;;
23099;SDS011;53791;50.696;4.396;2023-05-13T06:18:03;6.17;;;5.12;;
23099;SDS011;53791;50.696;4.396;2023-05-13T06:20:30;4.22;;;3.83;;
23099;SDS011;53791;50.696;4.396;2023-05-13T06:23:00;4.00;;;3.60;;
23099;SDS011;53791;50.696;4.396;2023-05-13T06:25:29;4.15;;;3.75;;
23099;SDS011;53791;50.696;4.396;2023-05-13T06:27:57;4.00;;;3.60;;
23099;SDS011;53791;50.696;4.396;2023-05-13T06:30:25;5.58;;;4.85;;
23099;SDS011;53791;50.696;4.396;2023-05-13T06:32:52;5.42;;;4.15;;
23099;SDS011;53791;50.696;4.396;2023-05-13T06:35:20;4.85;;;3.87;;
23099;SDS011;53791;50.696;4.396;2023-05-13T06:37:49;5.25;;;4.20;;
23099;SDS011;53791;50.696;4.396;2023-05-13T06:40:16;6.95;;;4.37;;
23099;SDS011;53791;50.696;4.396;2023-05-13T06:42:44;4.80;;;4.35;;
23099;SDS011;53791;50.696;4.396;2023-05-13T06:45:13;4.83;;;4.30;;
23099;SDS011;53791;50.696;4.396;2023-05-13T06:47:41;4.00;;;3.60;;
23099;SDS011;53791;50.696;4.396;2023-05-13T06:50:13;4.58;;;4.00;;
23099;SDS011;53791;50.696;4.396;2023-05-13T06:52:43;4.42;;;4.03;;
23099;SDS011;53791;50.696;4.396;2023-05-13T06:55:12;5.55;;;4.58;;
23099;SDS011;53791;50.696;4.396;2023-05-13T06:57:41;5.42;;;4.45;;
23099;SDS011;53791;50.696;4.396;2023-05-13T07:00:10;4.33;;;3.90;;
23099;SDS011;53791;50.696;4.396;2023-05-13T07:02:39;7.83;;;4.22;;
23099;SDS011;53791;50.696;4.396;2023-05-13T07:05:09;6.10;;;4.65;;
23099;SDS011;53791;50.696;4.396;2023-05-13T07:07:37;3.80;;;3.42;;
23099;SDS011;53791;50.696;4.396;2023-05-13T07:10:05;5.95;;;4.40;;
23099;SDS011;53791;50.696;4.396;2023-05-13T07:12:33;4.37;;;3.98;;
23099;SDS011;53791;50.696;4.396;2023-05-13T07:15:03;4.45;;;3.60;;
23099;SDS011;53791;50.696;4.396;2023-05-13T07:17:31;3.58;;;3.27;;
23099;SDS011;53791;50.696;4.396;2023-05-13T07:20:00;4.78;;;3.77;;
23099;SDS011;53791;50.696;4.396;2023-05-13T07:22:28;4.80;;;4.30;;
23099;SDS011;53791;50.696;4.396;2023-05-13T07:24:55;4.83;;;3.75;;
23099;SDS011;53791;50.696;4.396;2023-05-13T07:27:23;4.30;;;3.90;;
23099;SDS011;53791;50.696;4.396;2023-05-13T07:29:50;11.38;;;4.40;;
23099;SDS011;53791;50.696;4.396;2023-05-13T07:32:21;4.45;;;3.62;;
23099;SDS011;53791;50.696;4.396;2023-05-13T07:34:48;4.33;;;3.62;;
23099;SDS011;53791;50.696;4.396;2023-05-13T07:37:22;4.17;;;3.80;;
23099;SDS011;53791;50.696;4.396;2023-05-13T07:39:49;4.30;;;3.67;;
23099;SDS011;53791;50.696;4.396;2023-05-13T07:42:16;4.65;;;4.15;;
23099;SDS011;53791;50.696;4.396;2023-05-13T07:44:47;3.67;;;3.35;;
23099;SDS011;53791;50.696;4.396;2023-05-13T07:47:16;4.20;;;3.80;;
23099;SDS011;53791;50.696;4.396;2023-05-13T07:49:46;28.73;;;4.37;;
23099;SDS011;53791;50.696;4.396;2023-05-13T07:52:16;4.72;;;3.60;;
23099;SDS011;53791;50.696;4.396;2023-05-13T07:54:43;5.58;;;3.90;;
23099;SDS011;53791;50.696;4.396;2023-05-13T07:57:15;3.47;;;3.17;;
23099;SDS011;53791;50.696;4.396;2023-05-13T07:59:43;4.75;;;3.52;;
23099;SDS011;53791;50.696;4.396;2023-05-13T08:02:20;5.15;;;3.37;;
23099;SDS011;53791;50.696;4.396;2023-05-13T08:04:49;6.35;;;4.25;;
23099;SDS011;53791;50.696;4.396;2023-05-13T08:07:16;4.42;;;3.70;;
23099;SDS011;53791;50.696;4.396;2023-05-13T08:09:44;4.00;;;3.67;;
23099;SDS011;53791;50.696;4.396;2023-05-13T08:12:14;4.30;;;3.80;;
23099;SDS011;53791;50.696;4.396;2023-05-13T08:14:41;5.08;;;3.80;;
23099;SDS011;53791;50.696;4.396;2023-05-13T08:17:09;4.20;;;3.52;;
23099;SDS011;53791;50.696;4.396;2023-05-13T08:19:38;4.17;;;3.33;;
23099;SDS011;53791;50.696;4.396;2023-05-13T08:22:06;4.12;;;3.40;;
23099;SDS011;53791;50.696;4.396;2023-05-13T08:24:36;4.62;;;3.75;;
23099;SDS011;53791;50.696;4.396;2023-05-13T08:27:05;4.72;;;3.25;;
23099;SDS011;53791;50.696;4.396;2023-05-13T08:29:33;4.87;;;3.45;;
23099;SDS011;53791;50.696;4.396;2023-05-13T08:32:04;5.00;;;4.28;;
23099;SDS011;53791;50.696;4.396;2023-05-13T08:34:32;4.28;;;3.58;;
23099;SDS011;53791;50.696;4.396;2023-05-13T08:37:01;3.62;;;3.10;;
23099;SDS011;53791;50.696;4.396;2023-05-13T08:39:28;6.95;;;4.03;;
23099;SDS011;53791;50.696;4.396;2023-05-13T08:41:59;5.65;;;3.85;;
23099;SDS011;53791;50.696;4.396;2023-05-13T08:44:30;4.53;;;3.30;;
23099;SDS011;53791;50.696;4.396;2023-05-13T08:49:52;3.67;;;3.17;;
23099;SDS011;53791;50.696;4.396;2023-05-13T08:52:29;3.47;;;3.00;;
23099;SDS011;53791;50.696;4.396;2023-05-13T08:54:58;3.62;;;3.08;;
23099;SDS011;53791;50.696;4.396;2023-05-13T08:57:29;3.90;;;3.50;;
23099;SDS011;53791;50.696;4.396;2023-05-13T09:00:06;3.55;;;2.75;;
23099;SDS011;53791;50.696;4.396;2023-05-13T09:02:38;3.83;;;3.00;;
23099;SDS011;53791;50.696;4.396;2023-05-13T09:05:15;3.00;;;2.70;;
23099;SDS011;53791;50.696;4.396;2023-05-13T09:07:49;3.30;;;2.75;;
23099;SDS011;53791;50.696;4.396;2023-05-13T09:10:17;9.10;;;3.47;;
23099;SDS011;53791;50.696;4.396;2023-05-13T09:12:47;5.42;;;3.52;;
23099;SDS011;53791;50.696;4.396;2023-05-13T09:15:24;4.33;;;2.90;;
23099;SDS011;53791;50.696;4.396;2023-05-13T09:17:55;3.37;;;2.80;;
23099;SDS011;53791;50.696;4.396;2023-05-13T09:20:40;3.83;;;2.75;;
23099;SDS011;53791;50.696;4.396;2023-05-13T09:23:14;5.42;;;3.20;;
23099;SDS011;53791;50.696;4.396;2023-05-13T09:25:44;4.60;;;3.10;;
23099;SDS011;53791;50.696;4.396;2023-05-13T09:28:13;4.17;;;3.50;;
23099;SDS011;53791;50.696;4.396;2023-05-13T09:30:43;5.08;;;2.40;;
23099;SDS011;53791;50.696;4.396;2023-05-13T09:33:28;5.08;;;3.10;;
23099;SDS011;53791;50.696;4.396;2023-05-13T09:35:59;3.85;;;2.80;;
23099;SDS011;53791;50.696;4.396;2023-05-13T09:38:27;3.02;;;2.40;;
23099;SDS011;53791;50.696;4.396;2023-05-13T09:41:01;3.83;;;2.90;;
23099;SDS011;53791;50.696;4.396;2023-05-13T09:43:32;3.90;;;2.98;;
23099;SDS011;53791;50.696;4.396;2023-05-13T09:46:00;4.95;;;2.85;;
23099;SDS011;53791;50.696;4.396;2023-05-13T09:48:34;8.68;;;2.52;;
23099;SDS011;53791;50.696;4.396;2023-05-13T09:51:03;3.75;;;2.72;;
23099;SDS011;53791;50.696;4.396;2023-05-13T09:53:33;4.55;;;2.42;;
23099;SDS011;53791;50.696;4.396;2023-05-13T09:56:01;2.87;;;2.45;;
23099;SDS011;53791;50.696;4.396;2023-05-13T09:58:28;3.42;;;2.45;;
23099;SDS011;53791;50.696;4.396;2023-05-13T10:00:57;4.22;;;2.37;;
23099;SDS011;53791;50.696;4.396;2023-05-13T10:03:32;6.15;;;2.65;;
23099;SDS011;53791;50.696;4.396;2023-05-13T10:06:11;3.65;;;2.58;;
23099;SDS011;53791;50.696;4.396;2023-05-13T10:08:43;3.12;;;2.33;;
23099;SDS011;53791;50.696;4.396;2023-05-13T10:11:31;3.90;;;2.62;;
23099;SDS011;53791;50.696;4.396;2023-05-13T10:14:17;2.60;;;2.08;;
23099;SDS011;53791;50.696;4.396;2023-05-13T10:16:52;6.50;;;2.72;;
23099;SDS011;53791;50.696;4.396;2023-05-13T10:19:19;2.72;;;1.82;;
23099;SDS011;53791;50.696;4.396;2023-05-13T10:21:49;5.55;;;3.08;;
23099;SDS011;53791;50.696;4.396;2023-05-13T10:24:26;3.85;;;2.67;;
23099;SDS011;53791;50.696;4.396;2023-05-13T10:26:51;4.00;;;2.75;;
23099;SDS011;53791;50.696;4.396;2023-05-13T10:29:21;4.20;;;2.83;;
23099;SDS011;53791;50.696;4.396;2023-05-13T10:31:54;4.55;;;2.77;;
23099;SDS011;53791;50.696;4.396;2023-05-13T10:34:21;5.12;;;2.47;;
23099;SDS011;53791;50.696;4.396;2023-05-13T10:42:20;3.22;;;2.47;;
23099;SDS011;53791;50.696;4.396;2023-05-13T10:44:53;2.22;;;1.67;;
23099;SDS011;53791;50.696;4.396;2023-05-13T10:47:23;3.17;;;2.30;;
23099;SDS011;53791;50.696;4.396;2023-05-13T10:49:52;6.10;;;2.65;;
23099;SDS011;53791;50.696;4.396;2023-05-13T10:52:20;7.22;;;2.72;;
23099;SDS011;53791;50.696;4.396;2023-05-13T10:54:59;3.65;;;2.00;;
23099;SDS011;53791;50.696;4.396;2023-05-13T10:57:27;2.52;;;1.80;;
23099;SDS011;53791;50.696;4.396;2023-05-13T11:00:16;3.58;;;2.00;;
23099;SDS011;53791;50.696;4.396;2023-05-13T11:02:45;2.72;;;2.00;;
23099;SDS011;53791;50.696;4.396;2023-05-13T11:05:20;3.12;;;2.12;;
23099;SDS011;53791;50.696;4.396;2023-05-13T11:07:56;2.42;;;1.77;;
23099;SDS011;53791;50.696;4.396;2023-05-13T11:10:26;2.58;;;1.87;;
23099;SDS011;53791;50.696;4.396;2023-05-13T11:15:49;2.55;;;1.90;;
23099;SDS011;53791;50.696;4.396;2023-05-13T11:18:28;2.95;;;2.02;;
23099;SDS011;53791;50.696;4.396;2023-05-13T11:21:03;5.60;;;2.15;;
23099;SDS011;53791;50.696;4.396;2023-05-13T11:23:32;5.95;;;2.42;;
23099;SDS011;53791;50.696;4.396;2023-05-13T11:26:08;5.87;;;2.70;;
23099;SDS011;53791;50.696;4.396;2023-05-13T11:31:25;3.83;;;2.12;;
23099;SDS011;53791;50.696;4.396;2023-05-13T11:34:09;7.33;;;2.30;;
23099;SDS011;53791;50.696;4.396;2023-05-13T11:36:44;3.95;;;2.02;;
23099;SDS011;53791;50.696;4.396;2023-05-13T11:39:10;2.15;;;1.70;;
23099;SDS011;53791;50.696;4.396;2023-05-13T11:41:40;3.87;;;2.12;;
23099;SDS011;53791;50.696;4.396;2023-05-13T11:44:11;3.45;;;1.87;;
23099;SDS011;53791;50.696;4.396;2023-05-13T11:46:56;3.65;;;2.05;;
23099;SDS011;53791;50.696;4.396;2023-05-13T11:49:31;9.03;;;1.75;;
23099;SDS011;53791;50.696;4.396;2023-05-13T11:52:11;3.00;;;1.82;;
23099;SDS011;53791;50.696;4.396;2023-05-13T11:54:52;2.62;;;1.75;;
23099;SDS011;53791;50.696;4.396;2023-05-13T11:57:27;2.20;;;1.52;;
23099;SDS011;53791;50.696;4.396;2023-05-13T11:59:57;2.77;;;1.65;;
23099;SDS011;53791;50.696;4.396;2023-05-13T12:02:26;3.27;;;2.05;;
23099;SDS011;53791;50.696;4.396;2023-05-13T12:04:58;4.15;;;2.27;;
23099;SDS011;53791;50.696;4.396;2023-05-13T12:07:34;3.47;;;1.65;;
23099;SDS011;53791;50.696;4.396;2023-05-13T12:09:59;2.98;;;1.82;;
23099;SDS011;53791;50.696;4.396;2023-05-13T12:12:33;3.83;;;2.25;;
23099;SDS011;53791;50.696;4.396;2023-05-13T12:15:00;5.55;;;1.90;;
23099;SDS011;53791;50.696;4.396;2023-05-13T12:17:43;2.90;;;1.85;;
23099;SDS011;53791;50.696;4.396;2023-05-13T12:20:14;4.83;;;2.08;;
23099;SDS011;53791;50.696;4.396;2023-05-13T12:22:53;2.85;;;1.65;;
23099;SDS011;53791;50.696;4.396;2023-05-13T12:28:23;3.65;;;2.08;;
23099;SDS011;53791;50.696;4.396;2023-05-13T12:30:54;3.58;;;2.10;;
23099;SDS011;53791;50.696;4.396;2023-05-13T12:33:39;5.20;;;1.82;;
23099;SDS011;53791;50.696;4.396;2023-05-13T12:36:23;3.25;;;1.92;;
23099;SDS011;53791;50.696;4.396;2023-05-13T12:38:58;3.70;;;2.17;;
23099;SDS011;53791;50.696;4.396;2023-05-13T12:41:28;2.80;;;1.82;;
23099;SDS011;53791;50.696;4.396;2023-05-13T12:44:07;3.85;;;2.05;;
23099;SDS011;53791;50.696;4.396;2023-05-13T12:46:48;3.87;;;2.10;;
23099;SDS011;53791;50.696;4.396;2023-05-13T12:49:17;3.52;;;2.00;;
23099;SDS011;53791;50.696;4.396;2023-05-13T12:51:44;2.27;;;1.50;;
23099;SDS011;53791;50.696;4.396;2023-05-13T12:54:12;2.87;;;2.00;;
23099;SDS011;53791;50.696;4.396;2023-05-13T12:56:39;2.67;;;1.82;;
23099;SDS011;53791;50.696;4.396;2023-05-13T12:59:07;2.83;;;1.92;;
23099;SDS011;53791;50.696;4.396;2023-05-13T13:01:35;4.95;;;2.27;;
23099;SDS011;53791;50.696;4.396;2023-05-13T13:04:02;3.45;;;1.62;;
23099;SDS011;53791;50.696;4.396;2023-05-13T13:06:30;3.33;;;1.98;;
23099;SDS011;53791;50.696;4.396;2023-05-13T13:08:58;2.67;;;1.65;;
23099;SDS011;53791;50.696;4.396;2023-05-13T13:11:32;3.70;;;1.95;;
23099;SDS011;53791;50.696;4.396;2023-05-13T13:14:03;6.33;;;2.08;;
23099;SDS011;53791;50.696;4.396;2023-05-13T13:16:36;2.55;;;1.80;;
23099;SDS011;53791;50.696;4.396;2023-05-13T13:19:04;3.60;;;2.00;;
23099;SDS011;53791;50.696;4.396;2023-05-13T13:21:32;2.30;;;1.62;;
23099;SDS011;53791;50.696;4.396;2023-05-13T13:23:59;2.35;;;1.35;;
23099;SDS011;53791;50.696;4.396;2023-05-13T13:26:27;2.72;;;2.05;;
23099;SDS011;53791;50.696;4.396;2023-05-13T13:28:54;2.37;;;1.40;;
23099;SDS011;53791;50.696;4.396;2023-05-13T13:31:22;3.15;;;1.80;;
23099;SDS011;53791;50.696;4.396;2023-05-13T13:33:49;2.75;;;1.50;;
23099;SDS011;53791;50.696;4.396;2023-05-13T13:36:18;2.45;;;1.35;;
23099;SDS011;53791;50.696;4.396;2023-05-13T13:38:46;2.55;;;1.40;;
23099;SDS011;53791;50.696;4.396;2023-05-13T13:41:15;2.65;;;1.60;;
23099;SDS011;53791;50.696;4.396;2023-05-13T13:43:42;3.05;;;1.70;;
23099;SDS011;53791;50.696;4.396;2023-05-13T13:46:10;3.25;;;1.42;;
23099;SDS011;53791;50.696;4.396;2023-05-13T13:48:37;2.65;;;1.45;;
23099;SDS011;53791;50.696;4.396;2023-05-13T13:51:06;3.40;;;1.80;;
23099;SDS011;53791;50.696;4.396;2023-05-13T13:53:34;4.97;;;2.05;;
23099;SDS011;53791;50.696;4.396;2023-05-13T13:56:01;3.30;;;1.75;;
23099;SDS011;53791;50.696;4.396;2023-05-13T13:58:29;3.05;;;1.70;;
23099;SDS011;53791;50.696;4.396;2023-05-13T14:00:56;4.03;;;2.00;;
23099;SDS011;53791;50.696;4.396;2023-05-13T14:03:24;2.27;;;1.50;;
23099;SDS011;53791;50.696;4.396;2023-05-13T14:05:54;1.90;;;1.20;;
23099;SDS011;53791;50.696;4.396;2023-05-13T14:08:28;2.92;;;1.57;;
23099;SDS011;53791;50.696;4.396;2023-05-13T14:10:56;2.05;;;1.30;;
23099;SDS011;53791;50.696;4.396;2023-05-13T14:13:25;2.10;;;1.32;;
23099;SDS011;53791;50.696;4.396;2023-05-13T14:15:52;3.27;;;1.65;;
23099;SDS011;53791;50.696;4.396;2023-05-13T14:18:20;3.20;;;1.57;;
23099;SDS011;53791;50.696;4.396;2023-05-13T14:20:47;1.80;;;1.17;;
23099;SDS011;53791;50.696;4.396;2023-05-13T14:23:16;3.22;;;1.95;;
23099;SDS011;53791;50.696;4.396;2023-05-13T14:25:43;2.85;;;1.57;;
23099;SDS011;53791;50.696;4.396;2023-05-13T14:28:11;3.22;;;1.50;;
23099;SDS011;53791;50.696;4.396;2023-05-13T14:30:40;2.42;;;1.50;;
23099;SDS011;53791;50.696;4.396;2023-05-13T14:33:07;1.90;;;1.32;;
23099;SDS011;53791;50.696;4.396;2023-05-13T14:35:36;3.62;;;1.80;;
23099;SDS011;53791;50.696;4.396;2023-05-13T14:38:03;3.40;;;1.57;;
23099;SDS011;53791;50.696;4.396;2023-05-13T14:40:34;2.80;;;1.62;;
23099;SDS011;53791;50.696;4.396;2023-05-13T14:43:06;3.77;;;1.92;;
23099;SDS011;53791;50.696;4.396;2023-05-13T14:45:35;2.50;;;1.30;;
23099;SDS011;53791;50.696;4.396;2023-05-13T14:48:04;3.62;;;1.95;;
23099;SDS011;53791;50.696;4.396;2023-05-13T14:50:32;4.33;;;1.57;;
23099;SDS011;53791;50.696;4.396;2023-05-13T14:53:02;2.00;;;1.25;;
23099;SDS011;53791;50.696;4.396;2023-05-13T14:55:31;1.92;;;1.22;;
23099;SDS011;53791;50.696;4.396;2023-05-13T14:57:59;2.95;;;1.42;;
23099;SDS011;53791;50.696;4.396;2023-05-13T15:00:26;3.05;;;1.50;;
23099;SDS011;53791;50.696;4.396;2023-05-13T15:03:02;1.87;;;1.35;;
23099;SDS011;53791;50.696;4.396;2023-05-13T15:05:32;2.05;;;1.12;;
23099;SDS011;53791;50.696;4.396;2023-05-13T15:07:59;6.58;;;2.22;;
23099;SDS011;53791;50.696;4.396;2023-05-13T15:10:27;2.10;;;1.40;;
23099;SDS011;53791;50.696;4.396;2023-05-13T15:12:54;3.58;;;1.87;;
23099;SDS011;53791;50.696;4.396;2023-05-13T15:15:23;2.95;;;1.50;;
23099;SDS011;53791;50.696;4.396;2023-05-13T15:17:56;2.10;;;1.30;;
23099;SDS011;53791;50.696;4.396;2023-05-13T15:20:26;2.17;;;1.22;;
23099;SDS011;53791;50.696;4.396;2023-05-13T15:22:54;17.70;;;1.95;;
23099;SDS011;53791;50.696;4.396;2023-05-13T15:25:23;2.83;;;1.42;;
23099;SDS011;53791;50.696;4.396;2023-05-13T15:27:53;2.52;;;1.40;;
23099;SDS011;53791;50.696;4.396;2023-05-13T15:30:23;2.02;;;1.27;;
23099;SDS011;53791;50.696;4.396;2023-05-13T15:32:53;2.55;;;1.15;;
23099;SDS011;53791;50.696;4.396;2023-05-13T15:35:27;2.95;;;1.52;;
23099;SDS011;53791;50.696;4.396;2023-05-13T15:37:56;2.77;;;1.55;;
23099;SDS011;53791;50.696;4.396;2023-05-13T15:43:18;1.77;;;1.27;;
23099;SDS011;53791;50.696;4.396;2023-05-13T15:45:51;3.10;;;1.47;;
23099;SDS011;53791;50.696;4.396;2023-05-13T15:48:28;2.70;;;1.52;;
23099;SDS011;53791;50.696;4.396;2023-05-13T15:51:17;3.42;;;1.95;;
23099;SDS011;53791;50.696;4.396;2023-05-13T15:54:04;3.02;;;2.17;;
23099;SDS011;53791;50.696;4.396;2023-05-13T15:56:31;6.53;;;2.98;;
23099;SDS011;53791;50.696;4.396;2023-05-13T15:59:10;13.30;;;3.27;;
23099;SDS011;53791;50.696;4.396;2023-05-13T16:04:24;12.07;;;3.15;;
23099;SDS011;53791;50.696;4.396;2023-05-13T16:06:59;3.42;;;2.10;;
23099;SDS011;53791;50.696;4.396;2023-05-13T16:09:33;4.33;;;2.42;;
23099;SDS011;53791;50.696;4.396;2023-05-13T16:12:02;3.05;;;2.08;;
23099;SDS011;53791;50.696;4.396;2023-05-13T16:14:39;2.98;;;1.80;;
23099;SDS011;53791;50.696;4.396;2023-05-13T16:17:07;3.75;;;2.15;;